Time;durP1;ratioP1;P1;durP2;ratioP2;P2;SDS_P1;SDS_P2;PMS_P1;PMS_P2;Temp;Humidity;BMP_temperature;BMP_pressure;BME280_temperature;BME280_humidity;BME280_pressure;Samples;Min_cycle;Max_cycle;Signal;HPM_P1;HPM_P2
2023/03/16 00:00:32;;;;;;;;;;;;;;;-142.75;100.00;78139.47;5034541;28;19913;-68
2023/03/16 00:02:58;;;;;;;;;;;;;;;-142.75;100.00;78147.34;5033211;28;19913;-69
2023/03/16 00:05:24;;;;;;;;;;;;;;;-142.75;100.00;78151.28;5034618;28;20347;-68
2023/03/16 00:07:50;;;;;;;;;;;;;;;-142.75;100.00;78157.19;5034420;28;20389;-70
2023/03/16 00:10:15;;;;;;;;;;;;;;;-142.75;100.00;78135.53;5034444;28;20062;-68
2023/03/16 00:12:42;;;;;;;;;;;;;;;-142.75;100.00;78133.56;5034325;28;20404;-69
2023/03/16 00:15:08;;;;;;;;;;;;;;;-142.75;100.00;78113.88;5034313;28;20380;-69
2023/03/16 00:17:33;;;;;;;;;;;;;;;-142.75;100.00;78131.59;5034275;28;19919;-69
2023/03/16 00:19:58;;;;;;;;;;;;;;;-142.75;100.00;78137.50;5034037;28;19920;-69
2023/03/16 00:22:25;;;;;;;;;;;;;;;-142.75;100.00;78137.50;5034059;28;19960;-68
2023/03/16 00:24:51;;;;;;;;;;;;;;;-142.75;100.00;78141.44;5034297;28;20007;-69
2023/03/16 00:27:17;;;;;;;;;;;;;;;-142.75;100.00;78139.47;5034173;28;19920;-68
2023/03/16 00:29:46;;;;;;;;;;;;;;;-142.75;100.00;78129.63;5034013;28;19913;-68
2023/03/16 00:32:15;;;;;;;;;;;;;;;-142.75;100.00;78133.56;5032487;28;19913;-69
2023/03/16 00:34:41;;;;;;;;;;;;;;;-142.75;100.00;78125.69;5032735;28;19917;-68
2023/03/16 00:37:06;;;;;;;;;;;;;;;-142.75;100.00;78131.59;5032559;28;19995;-69
2023/03/16 00:39:34;;;;;;;;;;;;;;;-142.75;100.00;78113.88;5033866;28;19913;-69
2023/03/16 00:41:59;;;;;;;;;;;;;;;-142.75;100.00;78098.13;5033680;28;19931;-66
2023/03/16 00:44:24;;;;;;;;;;;;;;;-142.75;100.00;78098.13;5033822;28;20036;-68
2023/03/16 00:46:50;;;;;;;;;;;;;;;-142.75;100.00;78106.00;5033751;28;20447;-70
2023/03/16 00:49:15;;;;;;;;;;;;;;;-142.75;100.00;78086.31;5033590;28;19917;-68
2023/03/16 00:51:45;;;;;;;;;;;;;;;-142.75;100.00;78094.19;5032224;28;19913;-68
2023/03/16 00:54:10;;;;;;;;;;;;;;;-142.75;100.00;78098.13;5032230;28;19919;-68
2023/03/16 00:56:35;;;;;;;;;;;;;;;-142.75;100.00;78088.28;5033587;28;19913;-68
2023/03/16 00:59:00;;;;;;;;;;;;;;;-142.75;100.00;78086.31;5032048;28;19913;-70
2023/03/16 01:01:26;;;;;;;;;;;;;;;-142.75;100.00;78076.47;5033362;28;19924;-69
2023/03/16 01:03:51;;;;;;;;;;;;;;;-142.75;100.00;78076.47;5033345;28;19980;-69
2023/03/16 01:06:18;;;;;;;;;;;;;;;-142.75;100.00;78070.56;5033437;28;19959;-67
2023/03/16 01:08:44;;;;;;;;;;;;;;;-142.75;100.00;78072.53;5032009;28;19963;-68
2023/03/16 01:11:12;;;;;;;;;;;;;;;-142.75;100.00;78072.53;5031907;28;19913;-69
2023/03/16 01:13:37;;;;;;;;;;;;;;;-142.75;100.00;78072.53;5033010;28;19921;-69
2023/03/16 01:16:03;;;;;;;;;;;;;;;-142.75;100.00;78066.63;5033170;28;20395;-68
2023/03/16 01:18:28;;;;;;;;;;;;;;;-142.75;100.00;78056.78;5033088;28;19913;-69
2023/03/16 01:20:53;;;;;;;;;;;;;;;-142.75;100.00;78050.84;5033054;28;20287;-69
2023/03/16 01:23:19;;;;;;;;;;;;;;;-142.75;100.00;78039.03;5032994;28;20060;-68
2023/03/16 01:25:52;;;;;;;;;;;;;;;-142.75;100.00;78042.97;5031865;28;19999;-68
2023/03/16 01:28:23;;;;;;;;;;;;;;;-142.75;100.00;78050.84;5032927;28;19913;-69
2023/03/16 01:30:48;;;;;;;;;;;;;;;-142.75;100.00;78035.09;5032304;28;19974;-69
2023/03/16 01:33:14;;;;;;;;;;;;;;;-142.75;100.00;78031.16;5031488;28;20331;-69
2023/03/16 01:35:40;;;;;;;;;;;;;;;-142.75;100.00;78037.06;5032829;28;19917;-69
2023/03/16 01:38:05;;;;;;;;;;;;;;;-142.75;100.00;78027.22;5031497;28;19966;-68
2023/03/16 01:40:30;;;;;;;;;;;;;;;-142.75;100.00;78023.28;5031411;28;19913;-68
2023/03/16 01:43:03;;;;;;;;;;;;;;;-142.75;100.00;78019.34;5031243;28;20395;-68
2023/03/16 01:45:47;;;;;;;;;;;;;;;-142.75;100.00;78011.47;5032761;28;19912;-68
2023/03/16 01:48:13;;;;;;;;;;;;;;;-142.75;100.00;78007.53;5031149;28;20261;-68
2023/03/16 01:50:38;;;;;;;;;;;;;;;-142.75;100.00;78005.56;5033085;28;19920;-68
2023/03/16 01:53:04;;;;;;;;;;;;;;;-142.75;100.00;77995.72;5032400;28;19917;-69
2023/03/16 01:55:29;;;;;;;;;;;;;;;-142.75;100.00;77991.78;5032551;28;19917;-69
2023/03/16 01:57:54;;;;;;;;;;;;;;;-142.75;100.00;78003.59;5032243;28;20403;-68
2023/03/16 02:00:22;;;;;;;;;;;;;;;-142.75;100.00;77993.75;5032382;28;20384;-68
2023/03/16 02:02:55;;;;;;;;;;;;;;;-142.75;100.00;77983.91;5032314;28;19913;-68
2023/03/16 02:05:29;;;;;;;;;;;;;;;-142.75;100.00;77997.69;5032429;28;19913;-68
2023/03/16 02:07:57;;;;;;;;;;;;;;;-142.75;100.00;77993.75;5032325;28;19916;-68
2023/03/16 02:10:23;;;;;;;;;;;;;;;-142.75;100.00;77993.75;5032225;28;20410;-68
2023/03/16 02:12:49;;;;;;;;;;;;;;;-142.75;100.00;77999.66;5030753;28;19913;-68
2023/03/16 02:15:14;;;;;;;;;;;;;;;-142.75;100.00;77983.91;5031003;28;20396;-68
2023/03/16 02:17:41;;;;;;;;;;;;;;;-142.75;100.00;77985.88;5032191;28;20296;-67
2023/03/16 02:20:22;;;;;;;;;;;;;;;-142.75;100.00;77987.84;5032168;28;20349;-68
2023/03/16 02:22:49;;;;;;;;;;;;;;;-142.75;100.00;77989.81;5032034;28;19913;-68
2023/03/16 02:25:16;;;;;;;;;;;;;;;-142.75;100.00;78001.63;5032120;28;20004;-67
2023/03/16 02:28:01;;;;;;;;;;;;;;;-142.75;100.00;77989.81;5032041;28;19913;-67
2023/03/16 02:30:26;;;;;;;;;;;;;;;-142.75;100.00;77987.84;5032014;28;19913;-67
2023/03/16 02:32:53;;;;;;;;;;;;;;;-142.75;100.00;77979.97;5031953;28;20305;-68
2023/03/16 02:35:18;;;;;;;;;;;;;;;-142.75;100.00;77976.03;5031994;28;20368;-68
2023/03/16 02:37:43;;;;;;;;;;;;;;;-142.75;100.00;77968.16;5031879;28;19956;-68
2023/03/16 02:40:23;;;;;;;;;;;;;;;-142.75;100.00;77972.09;5030608;28;19913;-67
2023/03/16 02:42:53;;;;;;;;;;;;;;;-142.75;100.00;77954.38;5033498;28;19920;-68
2023/03/16 02:45:19;;;;;;;;;;;;;;;-142.75;100.00;77952.41;5036155;28;20008;-67
2023/03/16 02:47:46;;;;;;;;;;;;;;;-142.75;100.00;77954.38;5035820;28;20453;-67
2023/03/16 02:50:11;;;;;;;;;;;;;;;-142.75;100.00;77962.25;5034629;28;19913;-68
2023/03/16 02:52:37;;;;;;;;;;;;;;;-142.75;100.00;77962.25;5036293;28;19920;-68
2023/03/16 02:55:03;;;;;;;;;;;;;;;-142.75;100.00;77956.34;5035778;28;19979;-68
2023/03/16 02:57:28;;;;;;;;;;;;;;;-142.75;100.00;77950.44;5035728;28;20369;-66
2023/03/16 02:59:54;;;;;;;;;;;;;;;-142.75;100.00;77958.31;5035566;28;19924;-67
2023/03/16 03:02:19;;;;;;;;;;;;;;;-142.75;100.00;77952.41;5034316;28;19921;-68
2023/03/16 03:04:45;;;;;;;;;;;;;;;-142.75;100.00;77948.47;5035656;28;19920;-68
2023/03/16 03:07:10;;;;;;;;;;;;;;;-142.75;100.00;77952.41;5035615;28;19916;-68
2023/03/16 03:09:36;;;;;;;;;;;;;;;-142.75;100.00;77936.66;5035510;28;19913;-69
2023/03/16 03:12:01;;;;;;;;;;;;;;;-142.75;100.00;77940.59;5052443;28;19917;-66
2023/03/16 03:14:27;;;;;;;;;;;;;;;-142.75;100.00;77940.59;5055436;28;19913;-68
2023/03/16 03:16:52;;;;;;;;;;;;;;;-142.75;100.00;77934.69;5055450;28;19952;-68
2023/03/16 03:19:17;;;;;;;;;;;;;;;-142.75;100.00;77934.69;5055306;28;19913;-68
2023/03/16 03:21:43;;;;;;;;;;;;;;;-142.75;100.00;77928.78;5055211;28;19980;-67
2023/03/16 03:24:09;;;;;;;;;;;;;;;-142.75;100.00;77922.88;5055143;28;19927;-69
2023/03/16 03:26:36;;;;;;;;;;;;;;;-142.75;100.00;77909.06;5055298;28;19916;-68
2023/03/16 03:29:01;;;;;;;;;;;;;;;-142.75;100.00;77909.06;5055132;28;19959;-68
2023/03/16 03:31:27;;;;;;;;;;;;;;;-142.75;100.00;77905.13;5055077;28;19980;-67
2023/03/16 03:33:52;;;;;;;;;;;;;;;-142.75;100.00;77913.03;5054980;28;20492;-67
2023/03/16 03:36:17;;;;;;;;;;;;;;;-142.75;100.00;77909.06;5070446;28;20006;-68
2023/03/16 03:38:43;;;;;;;;;;;;;;;-142.75;100.00;77922.88;5070330;28;19913;-68
2023/03/16 03:41:08;;;;;;;;;;;;;;;-142.75;100.00;77907.09;5054822;28;19968;-68
2023/03/16 03:43:34;;;;;;;;;;;;;;;-142.75;100.00;77911.06;5054807;28;20433;-68
2023/03/16 03:46:00;;;;;;;;;;;;;;;-142.75;100.00;77924.84;5054921;28;20395;-68
2023/03/16 03:48:25;;;;;;;;;;;;;;;-142.75;100.00;77909.06;5054667;28;19917;-68
2023/03/16 03:50:50;;;;;;;;;;;;;;;-142.75;100.00;77911.06;5054614;28;20447;-68
2023/03/16 03:53:16;;;;;;;;;;;;;;;-142.75;100.00;77901.19;5054108;28;19920;-67
2023/03/16 03:55:41;;;;;;;;;;;;;;;-142.75;100.00;77895.28;5054608;28;19917;-68
2023/03/16 03:58:06;;;;;;;;;;;;;;;-142.75;100.00;77885.44;5069894;28;20011;-68
2023/03/16 04:00:32;;;;;;;;;;;;;;;-142.75;100.00;77885.44;5054494;28;19913;-68
2023/03/16 04:02:57;;;;;;;;;;;;;;;-142.75;100.00;77883.47;5054436;28;19920;-68
2023/03/16 04:05:26;;;;;;;;;;;;;;;-142.75;100.00;77889.38;5054482;28;20391;-68
2023/03/16 04:07:53;;;;;;;;;;;;;;;-142.75;100.00;77889.38;5054427;28;19920;-68
2023/03/16 04:10:19;;;;;;;;;;;;;;;-142.75;100.00;77901.19;5054267;28;19920;-68
2023/03/16 04:12:45;;;;;;;;;;;;;;;-142.75;100.00;77893.31;5054267;28;19913;-68
2023/03/16 04:15:11;;;;;;;;;;;;;;;-142.75;100.00;77885.44;5054250;28;19917;-68
2023/03/16 04:17:36;;;;;;;;;;;;;;;-142.75;100.00;77879.53;5069600;28;19986;-68
2023/03/16 04:20:04;;;;;;;;;;;;;;;-142.75;100.00;77889.38;5069589;28;19913;-68
2023/03/16 04:22:30;;;;;;;;;;;;;;;-142.75;100.00;77883.47;5054108;28;19928;-68
2023/03/16 04:24:55;;;;;;;;;;;;;;;-142.75;100.00;77873.63;5069197;28;19942;-68
2023/03/16 04:27:20;;;;;;;;;;;;;;;-142.75;100.00;77869.69;5054085;28;20269;-69
2023/03/16 04:29:45;;;;;;;;;;;;;;;-142.75;100.00;77901.19;5069450;28;20556;-68
2023/03/16 04:32:10;;;;;;;;;;;;;;;-142.75;100.00;77877.56;5053756;28;19920;-69
2023/03/16 04:34:37;;;;;;;;;;;;;;;-142.75;100.00;77879.53;5053842;28;19917;-68
2023/03/16 04:37:02;;;;;;;;;;;;;;;-142.75;100.00;77885.44;5069274;28;19913;-66
2023/03/16 04:39:27;;;;;;;;;;;;;;;-142.75;100.00;77869.69;5053772;28;20380;-68
2023/03/16 04:41:52;;;;;;;;;;;;;;;-142.75;100.00;77863.78;5053749;28;19982;-68
2023/03/16 04:44:18;;;;;;;;;;;;;;;-142.75;100.00;77873.63;5053623;28;19920;-67
2023/03/16 04:46:43;;;;;;;;;;;;;;;-142.75;100.00;77861.81;5053770;28;19917;-68
2023/03/16 04:49:08;;;;;;;;;;;;;;;-142.75;100.00;77873.63;5053437;28;19924;-67
2023/03/16 04:51:39;;;;;;;;;;;;;;;-142.75;100.00;77877.56;5053593;28;20312;-67
2023/03/16 04:54:04;;;;;;;;;;;;;;;-142.75;100.00;77871.66;5053414;28;19917;-67
2023/03/16 04:56:30;;;;;;;;;;;;;;;-142.75;100.00;77865.75;5053510;28;20031;-67
2023/03/16 04:58:58;;;;;;;;;;;;;;;-142.75;100.00;77873.63;5053489;28;19966;-67
2023/03/16 05:01:23;;;;;;;;;;;;;;;-142.75;100.00;77863.78;5053439;28;20360;-68
2023/03/16 05:03:49;;;;;;;;;;;;;;;-142.75;100.00;77867.72;5068612;28;19916;-67
2023/03/16 05:06:14;;;;;;;;;;;;;;;-142.75;100.00;77859.84;5052623;28;19913;-68
2023/03/16 05:08:39;;;;;;;;;;;;;;;-142.75;100.00;77853.94;5053328;28;19915;-68
2023/03/16 05:11:04;;;;;;;;;;;;;;;-142.75;100.00;77844.09;5053256;28;20326;-68
2023/03/16 05:13:30;;;;;;;;;;;;;;;-142.75;100.00;77848.03;5053210;28;20624;-67
2023/03/16 05:15:55;;;;;;;;;;;;;;;-142.75;100.00;77859.84;5053221;28;20011;-67
2023/03/16 05:18:21;;;;;;;;;;;;;;;-142.75;100.00;77840.16;5068432;28;19916;-68
2023/03/16 05:20:50;;;;;;;;;;;;;;;-142.75;100.00;77842.13;5053177;28;19916;-68
2023/03/16 05:23:15;;;;;;;;;;;;;;;-142.75;100.00;77838.19;5053047;28;19916;-67
2023/03/16 05:25:41;;;;;;;;;;;;;;;-142.75;100.00;77838.19;5053096;28;19920;-67
2023/03/16 05:28:06;;;;;;;;;;;;;;;-142.75;100.00;77826.38;5052968;28;20257;-67
2023/03/16 05:30:31;;;;;;;;;;;;;;;-142.75;100.00;77836.22;5052915;28;19909;-67
2023/03/16 05:32:57;;;;;;;;;;;;;;;-142.75;100.00;77830.31;5052748;28;19913;-67
2023/03/16 05:35:22;;;;;;;;;;;;;;;-142.75;100.00;77838.19;5068222;28;20003;-67
2023/03/16 05:37:47;;;;;;;;;;;;;;;-142.75;100.00;77844.09;5052776;28;20074;-67
2023/03/16 05:40:16;;;;;;;;;;;;;;;-142.75;100.00;77834.25;5068070;28;19909;-68
2023/03/16 05:42:44;;;;;;;;;;;;;;;-142.75;100.00;77830.31;5052566;28;19912;-67
2023/03/16 05:45:11;;;;;;;;;;;;;;;-142.75;100.00;77828.34;5068158;28;19909;-68
2023/03/16 05:47:36;;;;;;;;;;;;;;;-142.75;100.00;77826.38;5052464;28;19913;-67
2023/03/16 05:50:02;;;;;;;;;;;;;;;-142.75;100.00;77828.34;5051347;28;19915;-68
2023/03/16 05:52:27;;;;;;;;;;;;;;;-142.75;100.00;77832.28;5046095;28;19920;-67
2023/03/16 05:54:53;;;;;;;;;;;;;;;-142.75;100.00;77818.50;5032616;28;19913;-67
2023/03/16 05:57:18;;;;;;;;;;;;;;;-142.75;100.00;77830.31;5032584;28;19920;-67
2023/03/16 05:59:43;;;;;;;;;;;;;;;-142.75;100.00;77818.50;5032495;28;19919;-67
2023/03/16 06:02:09;;;;;;;;;;;;;;;-142.75;100.00;77832.28;5032230;28;19913;-67
2023/03/16 06:04:35;;;;;;;;;;;;;;;-142.75;100.00;77818.50;5032531;28;19913;-67
2023/03/16 06:07:01;;;;;;;;;;;;;;;-142.75;100.00;77826.38;5032403;28;19954;-65
2023/03/16 06:09:26;;;;;;;;;;;;;;;-142.75;100.00;77808.66;5032273;28;19999;-67
2023/03/16 06:11:51;;;;;;;;;;;;;;;-142.75;100.00;77818.50;5032314;28;19916;-68
2023/03/16 06:14:16;;;;;;;;;;;;;;;-142.75;100.00;77822.44;5032218;28;19909;-67
2023/03/16 06:16:41;;;;;;;;;;;;;;;-142.75;100.00;77812.59;5031999;28;19920;-68
2023/03/16 06:19:07;;;;;;;;;;;;;;;-142.75;100.00;77824.41;5032183;28;19909;-68
2023/03/16 06:21:32;;;;;;;;;;;;;;;-142.75;100.00;77816.53;5032130;28;19963;-67
2023/03/16 06:23:57;;;;;;;;;;;;;;;-142.75;100.00;77822.44;5032054;28;19909;-67
2023/03/16 06:26:23;;;;;;;;;;;;;;;-142.75;100.00;77816.53;5032146;28;19909;-67
2023/03/16 06:28:48;;;;;;;;;;;;;;;-142.75;100.00;77816.53;5032140;28;19980;-68
2023/03/16 06:31:13;;;;;;;;;;;;;;;-142.75;100.00;77802.75;5031958;28;19913;-66
2023/03/16 06:33:38;;;;;;;;;;;;;;;-142.75;100.00;77814.56;5032057;28;19944;-68
2023/03/16 06:36:04;;;;;;;;;;;;;;;-142.75;100.00;77790.94;5032000;28;19920;-67
2023/03/16 06:38:29;;;;;;;;;;;;;;;-142.75;100.00;77796.84;5032003;28;19963;-67
2023/03/16 06:40:54;;;;;;;;;;;;;;;-142.75;100.00;77779.13;5032002;28;19909;-68
2023/03/16 06:43:20;;;;;;;;;;;;;;;-142.75;100.00;77785.03;5030682;28;20334;-67
2023/03/16 06:45:45;;;;;;;;;;;;;;;-142.75;100.00;77771.25;5030745;28;20608;-68
2023/03/16 06:48:10;;;;;;;;;;;;;;;-142.75;100.00;77773.22;5031816;28;19917;-68
2023/03/16 06:50:35;;;;;;;;;;;;;;;-142.75;100.00;77767.31;5032951;28;19993;-67
2023/03/16 06:53:01;;;;;;;;;;;;;;;-142.75;100.00;77755.50;5033157;28;20376;-68
2023/03/16 06:55:26;;;;;;;;;;;;;;;-142.75;100.00;77767.31;5030679;28;20058;-66
2023/03/16 06:57:51;;;;;;;;;;;;;;;-142.75;100.00;77769.28;5031839;28;19925;-67
2023/03/16 07:00:17;;;;;;;;;;;;;;;-142.75;100.00;77765.34;5031757;28;19916;-68
2023/03/16 07:02:42;;;;;;;;;;;;;;;-142.75;100.00;77759.44;5046541;28;19920;-67
2023/03/16 07:05:11;;;;;;;;;;;;;;;-142.75;100.00;77759.44;5051723;28;19948;-67
2023/03/16 07:07:37;;;;;;;;;;;;;;;-142.75;100.00;77755.50;5051695;28;19916;-67
2023/03/16 07:10:02;;;;;;;;;;;;;;;-142.75;100.00;77749.59;5051619;28;19908;-67
2023/03/16 07:12:28;;;;;;;;;;;;;;;-142.75;100.00;77739.75;5036404;28;19920;-67
2023/03/16 07:14:53;;;;;;;;;;;;;;;-142.75;100.00;77737.78;5031680;28;19967;-66
2023/03/16 07:17:18;;;;;;;;;;;;;;;-142.75;100.00;77749.59;5031726;28;19913;-67
2023/03/16 07:19:43;;;;;;;;;;;;;;;-142.75;100.00;77747.63;5031523;28;19913;-68
2023/03/16 07:22:09;;;;;;;;;;;;;;;-142.75;100.00;77741.72;5030205;28;19948;-67
2023/03/16 07:24:34;;;;;;;;;;;;;;;-142.75;100.00;77735.81;5031713;28;20367;-67
2023/03/16 07:27:00;;;;;;;;;;;;;;;-142.75;100.00;77735.81;5030390;28;19909;-68
2023/03/16 07:29:26;;;;;;;;;;;;;;;-142.75;100.00;77731.88;5032824;28;19909;-68
2023/03/16 07:31:52;;;;;;;;;;;;;;;-142.75;100.00;77733.84;5035191;28;19978;-68
2023/03/16 07:34:17;;;;;;;;;;;;;;;-142.75;100.00;77722.00;5033779;28;19942;-68
2023/03/16 07:36:42;;;;;;;;;;;;;;;-142.75;100.00;77722.00;5035217;28;19913;-67
2023/03/16 07:39:08;;;;;;;;;;;;;;;-142.75;100.00;77712.16;5035067;28;20260;-68
2023/03/16 07:41:33;;;;;;;;;;;;;;;-142.75;100.00;77739.75;5035028;28;19913;-68
2023/03/16 07:43:59;;;;;;;;;;;;;;;-142.75;100.00;77747.63;5033644;28;20280;-67
2023/03/16 07:46:24;;;;;;;;;;;;;;;-142.75;100.00;77718.06;5035036;28;19909;-68
2023/03/16 07:48:49;;;;;;;;;;;;;;;-142.75;100.00;77727.94;5034749;28;20356;-67
2023/03/16 07:51:15;;;;;;;;;;;;;;;-142.75;100.00;77720.03;5035387;28;19912;-67
2023/03/16 07:53:40;;;;;;;;;;;;;;;-142.75;100.00;77708.22;5034826;28;20323;-68
2023/03/16 07:56:06;;;;;;;;;;;;;;;-142.75;100.00;77712.16;5050398;28;19920;-67
2023/03/16 07:58:31;;;;;;;;;;;;;;;-142.75;100.00;77714.13;5054614;28;20301;-68
2023/03/16 08:00:57;;;;;;;;;;;;;;;-142.75;100.00;77716.09;5054127;28;19962;-68
2023/03/16 08:03:23;;;;;;;;;;;;;;;-142.75;100.00;77704.28;5054522;28;19988;-68
2023/03/16 08:05:48;;;;;;;;;;;;;;;-142.75;100.00;77714.13;5042607;28;20021;-65
2023/03/16 08:08:14;;;;;;;;;;;;;;;-142.75;100.00;77706.25;5041025;28;19996;-67
2023/03/16 08:10:40;;;;;;;;;;;;;;;-142.75;100.00;77714.13;5038169;28;19959;-66
2023/03/16 08:13:05;;;;;;;;;;;;;;;-142.75;100.00;77696.41;5037864;28;19950;-66
2023/03/16 08:15:32;;;;;;;;;;;;;;;-142.75;100.00;77696.41;5046829;28;19925;-67
2023/03/16 08:17:59;;;;;;;;;;;;;;;-142.75;100.00;77688.53;5052805;28;19916;-67
2023/03/16 08:20:24;;;;;;;;;;;;;;;-142.75;100.00;77694.44;5040797;28;19921;-66
2023/03/16 08:22:49;;;;;;;;;;;;;;;-142.75;100.00;77692.47;5042364;28;19924;-67
2023/03/16 08:25:15;;;;;;;;;;;;;;;-142.75;100.00;77692.47;5040590;28;19917;-67
2023/03/16 08:27:41;;;;;;;;;;;;;;;-142.75;100.00;77688.53;5034598;28;19913;-67
2023/03/16 08:30:10;;;;;;;;;;;;;;;-142.75;100.00;77688.53;5045782;28;20022;-66
2023/03/16 08:32:36;;;;;;;;;;;;;;;-142.75;100.00;77676.72;5044330;28;20051;-65
2023/03/16 08:35:01;;;;;;;;;;;;;;;-142.75;100.00;77668.84;5037587;28;20010;-66
2023/03/16 08:37:27;;;;;;;;;;;;;;;-142.75;100.00;77670.81;5032921;28;19972;-66
2023/03/16 08:39:53;;;;;;;;;;;;;;;-142.75;100.00;77666.88;5037462;28;19916;-65
2023/03/16 08:42:19;;;;;;;;;;;;;;;-142.75;100.00;77655.06;5035240;28;20003;-67
2023/03/16 08:44:46;;;;;;;;;;;;;;;-142.75;100.00;77645.22;5044240;28;20017;-67
2023/03/16 08:47:13;;;;;;;;;;;;;;;-142.75;100.00;77645.22;5035819;28;19983;-66
2023/03/16 08:49:38;;;;;;;;;;;;;;;-142.75;100.00;77621.59;5043722;28;19917;-67
2023/03/16 08:52:04;;;;;;;;;;;;;;;-142.75;100.00;77611.75;5052087;28;20007;-67
2023/03/16 08:54:31;;;;;;;;;;;;;;;-142.75;100.00;77590.09;5036043;28;19917;-66
2023/03/16 08:56:56;;;;;;;;;;;;;;;-142.75;100.00;77582.22;5032463;28;20315;-66
2023/03/16 08:59:21;;;;;;;;;;;;;;;-142.75;100.00;77578.28;5041631;28;19924;-66
2023/03/16 09:01:46;;;;;;;;;;;;;;;-142.75;100.00;77582.22;5043937;28;20295;-66
2023/03/16 09:04:12;;;;;;;;;;;;;;;-142.75;100.00;77566.47;5041820;28;19913;-66
2023/03/16 09:06:38;;;;;;;;;;;;;;;-142.75;100.00;77572.38;5044483;28;19959;-66
2023/03/16 09:09:03;;;;;;;;;;;;;;;-142.75;100.00;77558.59;5045055;28;19920;-66
2023/03/16 09:11:32;;;;;;;;;;;;;;;-142.75;100.00;77525.13;5052045;28;20003;-68
2023/03/16 09:13:57;;;;;;;;;;;;;;;-142.75;100.00;77513.31;5068503;28;20376;-66
2023/03/16 09:16:24;;;;;;;;;;;;;;;-142.75;100.00;77470.00;5051414;28;19928;-67
2023/03/16 09:18:50;;;;;;;;;;;;;;;-142.75;100.00;77491.66;5052475;28;19924;-68
2023/03/16 09:21:15;;;;;;;;;;;;;;;-142.75;100.00;77470.00;5036311;28;19924;-67
2023/03/16 09:23:41;;;;;;;;;;;;;;;-142.75;100.00;77456.22;5032777;28;20377;-67
2023/03/16 09:26:07;;;;;;;;;;;;;;;-142.75;100.00;77452.25;5032610;28;20324;-67
2023/03/16 09:28:34;;;;;;;;;;;;;;;-142.75;100.00;77460.13;5040629;28;19913;-67
2023/03/16 09:31:00;;;;;;;;;;;;;;;-142.75;100.00;77399.09;5043365;28;19924;-67
2023/03/16 09:33:27;;;;;;;;;;;;;;;-142.75;100.00;77381.38;5041486;28;19913;-67
2023/03/16 09:35:54;;;;;;;;;;;;;;;-142.75;100.00;77349.88;5048108;28;19920;-66
2023/03/16 09:38:20;;;;;;;;;;;;;;;-142.75;100.00;77296.72;5052624;28;19913;-68
2023/03/16 09:40:51;;;;;;;;;;;;;;;-142.75;100.00;77312.47;5045656;28;20277;-66
2023/03/16 09:43:32;;;;;;;;;;;;;;;-142.75;100.00;77282.94;5042002;28;19966;-68
2023/03/16 09:46:15;;;;;;;;;;;;;;;-142.75;100.00;77284.91;5043548;28;19917;-67
2023/03/16 09:48:41;;;;;;;;;;;;;;;-142.75;100.00;77227.81;5051949;28;19924;-67
2023/03/16 09:51:13;;;;;;;;;;;;;;;-142.75;100.00;77216.00;5051692;28;19916;-68
2023/03/16 09:53:38;;;;;;;;;;;;;;;-142.75;100.00;77210.09;5052476;28;19966;-68
2023/03/16 09:56:09;;;;;;;;;;;;;;;-142.75;100.00;77206.16;5052420;28;19921;-68
2023/03/16 09:58:35;;;;;;;;;;;;;;;-142.75;100.00;77241.59;5042810;28;19916;-66
2023/03/16 10:01:13;;;;;;;;;;;;;;;-142.75;100.00;77239.63;5048649;28;20499;-68
2023/03/16 10:03:59;;;;;;;;;;;;;;;-142.75;100.00;77227.81;5052546;28;19909;-68
2023/03/16 10:06:25;;;;;;;;;;;;;;;-142.75;100.00;77243.56;5052428;28;20256;-66
2023/03/16 10:08:55;;;;;;;;;;;;;;;-142.75;100.00;77231.75;5036964;28;19927;-68
2023/03/16 10:11:32;;;;;;;;;;;;;;;-142.75;100.00;77208.13;5037248;28;19920;-69
2023/03/16 10:14:02;;;;;;;;;;;;;;;-142.75;100.00;77202.22;5040130;28;19917;-69
2023/03/16 10:16:33;;;;;;;;;;;;;;;-142.75;100.00;77231.75;5058122;28;19972;-67
2023/03/16 10:19:01;;;;;;;;;;;;;;;-142.75;100.00;77231.75;5045991;28;19924;-70
2023/03/16 10:21:28;;;;;;;;;;;;;;;-142.75;100.00;77219.94;5045337;28;19921;-68
2023/03/16 10:23:57;;;;;;;;;;;;;;;-142.75;100.00;77216.00;5032297;28;19921;-68
2023/03/16 10:26:27;;;;;;;;;;;;;;;-142.75;100.00;77214.03;5032129;28;19913;-68
2023/03/16 10:28:53;;;;;;;;;;;;;;;-142.75;100.00;77247.50;5039959;28;19933;-67
2023/03/16 10:31:20;;;;;;;;;;;;;;;-142.75;100.00;77210.09;5030717;28;19919;-68
2023/03/16 10:33:46;;;;;;;;;;;;;;;-142.75;100.00;77200.25;5042079;28;20019;-69
2023/03/16 10:36:12;;;;;;;;;;;;;;;-142.75;99.54;77180.56;5036978;28;19932;-67
2023/03/16 10:38:47;;;;;;;;;;;;;;;-142.75;98.58;77156.94;5040913;28;19917;-69
2023/03/16 10:41:21;;;;;;;;;;;;;;;-142.75;99.32;77156.94;5038701;28;20003;-67
2023/03/16 10:43:51;;;;;;;;;;;;;;;-142.75;97.95;77156.94;5034075;28;19917;-68
2023/03/16 10:46:16;;;;;;;;;;;;;;;-142.75;98.07;77141.19;5041324;28;19935;-68
2023/03/16 10:48:49;;;;;;;;;;;;;;;-142.75;94.40;77141.19;5039414;28;20435;-66
2023/03/16 10:51:16;;;;;;;;;;;;;;;-142.75;98.71;77107.72;5040335;28;19913;-66
2023/03/16 10:53:43;;;;;;;;;;;;;;;-142.75;95.77;77109.69;5038451;28;19913;-68
2023/03/16 10:56:18;;;;;;;;;;;;;;;-142.75;93.50;77119.53;5039408;28;19917;-67
2023/03/16 10:58:44;;;;;;;;;;;;;;;-142.75;91.48;77127.41;5040584;28;19913;-67
2023/03/16 11:01:30;;;;;;;;;;;;;;;-142.75;89.96;77156.94;5041217;28;19975;-68
2023/03/16 11:03:57;;;;;;;;;;;;;;;-142.75;88.57;77143.16;5038660;28;19999;-67
2023/03/16 11:06:24;;;;;;;;;;;;;;;-142.75;88.41;77129.38;5035639;28;19913;-67
2023/03/16 11:08:51;;;;;;;;;;;;;;;-142.75;89.35;77129.38;5036828;28;19909;-67
2023/03/16 11:11:19;;;;;;;;;;;;;;;-142.75;88.86;77117.56;5035407;28;19948;-66
2023/03/16 11:13:46;;;;;;;;;;;;;;;-142.75;90.94;77115.59;5043978;28;19910;-66
2023/03/16 11:16:26;;;;;;;;;;;;;;;-142.75;92.74;77105.75;5055534;28;20569;-65
2023/03/16 11:19:13;;;;;;;;;;;;;;;-142.75;92.37;77115.59;5046437;28;19986;-66
2023/03/16 11:21:55;;;;;;;;;;;;;;;-142.75;91.99;77090.00;5033003;28;20326;-65
2023/03/16 11:24:30;;;;;;;;;;;;;;;-142.75;92.05;77074.25;5044660;28;19951;-67
2023/03/16 11:26:57;;;;;;;;;;;;;;;-142.75;91.82;77072.28;5044157;28;19960;-67
2023/03/16 11:29:34;;;;;;;;;;;;;;;-142.75;91.47;77078.19;5050282;28;19917;-65
2023/03/16 11:32:11;;;;;;;;;;;;;;;-142.75;89.51;77074.25;5054811;28;19986;-66
2023/03/16 11:34:37;;;;;;;;;;;;;;;-142.75;90.29;77060.47;5046019;28;19996;-67
2023/03/16 11:37:02;;;;;;;;;;;;;;;-142.75;91.02;77060.47;5044026;28;19923;-67
2023/03/16 11:39:36;;;;;;;;;;;;;;;-142.75;87.76;77060.47;5044511;28;19920;-67
2023/03/16 11:42:17;;;;;;;;;;;;;;;-142.75;86.67;77030.94;5052044;28;19951;-69
2023/03/16 11:45:02;;;;;;;;;;;;;;;-142.75;85.98;77034.88;5053233;28;19936;-69
2023/03/16 11:47:30;;;;;;;;;;;;;;;-142.75;85.70;77021.09;5054505;28;20000;-69
2023/03/16 11:49:59;;;;;;;;;;;;;;;-142.75;85.12;77013.22;5054735;28;19920;-68
2023/03/16 11:52:30;;;;;;;;;;;;;;;-142.75;84.52;76973.84;5048980;28;19920;-67
2023/03/16 11:55:11;;;;;;;;;;;;;;;-142.75;81.02;76983.69;5054439;28;19917;-67
2023/03/16 11:57:43;;;;;;;;;;;;;;;-142.75;82.63;76930.53;5054374;28;20003;-67
2023/03/16 12:00:08;;;;;;;;;;;;;;;-142.75;81.05;76928.56;5054481;28;20296;-70
2023/03/16 12:02:54;;;;;;;;;;;;;;;-142.75;78.77;76932.50;5049686;28;19925;-67
2023/03/16 12:05:38;;;;;;;;;;;;;;;-142.75;81.59;76904.94;5045217;28;19909;-67
2023/03/16 12:08:03;;;;;;;;;;;;;;;-142.75;80.68;76885.25;5035757;28;19917;-67
2023/03/16 12:10:48;;;;;;;;;;;;;;;-142.75;81.24;76863.59;5033834;28;19920;-68
2023/03/16 12:13:34;;;;;;;;;;;;;;;-142.75;79.50;76853.75;5034013;28;19913;-68
2023/03/16 12:16:10;;;;;;;;;;;;;;;-142.75;78.45;76865.56;5032210;28;19967;-68
2023/03/16 12:18:44;;;;;;;;;;;;;;;-142.75;79.38;76830.13;5033981;28;19913;-67